Time;durP1;ratioP1;P1;durP2;ratioP2;P2;SDS_P1;SDS_P2;PMS_P1;PMS_P2;Temp;Humidity;BMP_temperature;BMP_pressure;BME280_temperature;BME280_humidity;BME280_pressure;Samples;Min_cycle;Max_cycle;Signal;HPM_P1;HPM_P2
2022/03/31 00:00:43;;;;;;;18.70;11.95;;;;;;;15.53;53.90;99561.02;1768597;80;21049;-57
2022/03/31 00:03:13;;;;;;;21.65;11.95;;;;;;;15.81;53.44;99554.22;1768588;80;21520;-57
2022/03/31 00:05:41;;;;;;;24.37;12.43;;;;;;;15.91;53.08;99561.48;1742398;80;20971;-58
2022/03/31 00:08:10;;;;;;;21.68;11.68;;;;;;;15.59;53.97;99550.08;1746327;80;21121;-59
2022/03/31 00:10:45;;;;;;;19.60;12.30;;;;;;;15.64;54.13;99568.56;1762031;79;21022;-57
2022/03/31 00:13:19;;;;;;;19.05;12.88;;;;;;;15.58;54.63;99563.73;1768101;79;21548;-61
2022/03/31 00:15:48;;;;;;;22.60;12.95;;;;;;;15.42;55.12;99564.95;1763139;79;22322;-59
2022/03/31 00:18:16;;;;;;;22.35;12.85;;;;;;;15.37;54.91;99556.47;1753604;79;21038;-59
2022/03/31 00:20:43;;;;;;;21.25;13.03;;;;;;;15.44;55.19;99545.84;1756712;80;20976;-57
2022/03/31 00:23:09;;;;;;;23.10;13.32;;;;;;;15.25;55.72;99534.17;1753692;80;21070;-57
2022/03/31 00:25:37;;;;;;;26.23;12.68;;;;;;;15.49;55.78;99544.62;1754931;80;21528;-57
2022/03/31 00:28:04;;;;;;;28.02;13.20;;;;;;;15.29;55.48;99531.88;1760916;80;21438;-58
2022/03/31 00:30:33;;;;;;;17.30;11.55;;;;;;;15.21;56.62;99525.16;1754564;80;20979;-57
2022/03/31 00:33:00;;;;;;;18.52;11.85;;;;;;;15.24;56.62;99537.03;1755990;80;20970;-58
2022/03/31 00:35:29;;;;;;;19.77;13.25;;;;;;;14.98;57.97;99540.94;1754291;79;20988;-61
2022/03/31 00:37:56;;;;;;;23.52;13.48;;;;;;;14.68;59.40;99544.47;1757143;79;21074;-58
2022/03/31 00:40:24;;;;;;;25.75;13.65;;;;;;;14.67;60.18;99554.68;1753951;79;21145;-57
2022/03/31 00:42:54;;;;;;;23.65;12.73;;;;;;;14.57;60.33;99562.30;1757586;79;21033;-57
2022/03/31 00:45:34;;;;;;;19.27;11.73;;;;;;;14.54;60.12;99559.61;1753989;79;21007;-58
2022/03/31 00:48:01;;;;;;;19.80;12.33;;;;;;;14.41;62.57;99560.31;1754410;79;21106;-57
2022/03/31 00:50:33;;;;;;;22.37;12.90;;;;;;;14.18;67.08;99559.22;1754030;80;21026;-56
2022/03/31 00:52:59;;;;;;;20.35;13.08;;;;;;;14.08;67.95;99569.44;1756737;79;21211;-57
2022/03/31 00:55:25;;;;;;;22.37;13.45;;;;;;;14.14;68.15;99577.73;1748284;79;21598;-59
2022/03/31 00:57:55;;;;;;;18.65;11.60;;;;;;;14.45;65.72;99576.67;1757612;79;20900;-56
2022/03/31 01:00:21;;;;;;;20.45;11.73;;;;;;;14.29;65.62;99580.74;1733341;80;21062;-58
2022/03/31 01:02:47;;;;;;;20.77;12.40;;;;;;;14.47;64.24;99575.13;1757934;79;21149;-56
2022/03/31 01:05:16;;;;;;;19.87;12.73;;;;;;;14.46;65.05;99570.91;1743300;80;20959;-56
2022/03/31 01:07:43;;;;;;;24.87;14.10;;;;;;;14.53;64.70;99576.89;1745079;81;20979;-59
2022/03/31 01:10:11;;;;;;;24.43;13.48;;;;;;;14.20;67.24;99582.58;1745169;80;21631;-55
2022/03/31 01:12:40;;;;;;;28.17;13.60;;;;;;;14.62;65.65;99584.70;1745302;80;21520;-56
2022/03/31 01:15:15;;;;;;;24.75;13.60;;;;;;;14.72;64.17;99584.95;1745024;81;21141;-61
2022/03/31 01:17:44;;;;;;;24.07;14.47;;;;;;;14.71;63.87;99591.23;1743348;81;21142;-59
2022/03/31 01:20:16;;;;;;;22.30;12.60;;;;;;;14.74;63.56;99584.23;1745439;81;20963;-57
2022/03/31 01:22:43;;;;;;;;;;;;;;;14.55;64.71;99585.34;1747842;81;21023;-55
2022/03/31 01:25:10;;;;;;;23.87;13.85;;;;;;;14.56;66.16;99583.80;1729862;80;20212;-63
2022/03/31 01:27:40;;;;;;;22.30;12.85;;;;;;;14.54;66.50;99589.77;1734109;80;21067;-56
2022/03/31 01:30:11;;;;;;;20.23;14.53;;;;;;;14.41;65.86;99606.20;1745360;80;21003;-55
2022/03/31 01:32:40;;;;;;;17.77;12.55;;;;;;;14.31;68.27;99604.10;1745208;80;21003;-57
2022/03/31 01:35:08;;;;;;;17.32;11.40;;;;;;;14.35;68.78;99600.80;1745292;81;20983;-62
2022/03/31 01:37:37;;;;;;;20.97;12.75;;;;;;;14.38;67.83;99602.70;1737411;80;20959;-58
2022/03/31 01:40:05;;;;;;;18.65;12.55;;;;;;;14.46;67.48;99603.69;1745587;80;21065;-57
2022/03/31 01:42:32;;;;;;;20.43;13.40;;;;;;;14.58;66.00;99600.13;1745094;80;21164;-57
2022/03/31 01:44:58;;;;;;;23.60;12.98;;;;;;;14.12;68.01;99612.52;1745289;80;21461;-58
2022/03/31 01:47:25;;;;;;;23.50;11.97;;;;;;;14.20;68.81;99614.03;1744968;80;22144;-59
2022/03/31 01:49:52;;;;;;;22.25;12.10;;;;;;;14.18;68.83;99625.27;1741130;80;21050;-58
2022/03/31 01:52:19;;;;;;;23.22;13.98;;;;;;;14.09;69.61;99633.44;1728210;80;21000;-58
2022/03/31 01:54:46;;;;;;;21.50;14.55;;;;;;;14.11;70.44;99637.94;1747012;80;21150;-57
2022/03/31 01:57:13;;;;;;;17.92;12.40;;;;;;;13.71;70.98;99640.72;1727020;82;21019;-57
2022/03/31 01:59:45;;;;;;;25.72;13.25;;;;;;;12.77;87.09;99632.10;1746197;81;20990;-57
2022/03/31 02:02:12;;;;;;;19.75;13.43;;;;;;;12.68;92.65;99624.20;1737162;80;21023;-56
2022/03/31 02:04:42;;;;;;;27.75;15.30;;;;;;;12.66;95.52;99623.92;1747225;79;21563;-55
2022/03/31 02:07:10;;;;;;;24.15;14.07;;;;;;;12.80;95.42;99629.04;1747119;81;21155;-59
2022/03/31 02:09:37;;;;;;;20.02;13.08;;;;;;;12.76;96.70;99631.28;1746756;80;20971;-55
2022/03/31 02:12:05;;;;;;;23.02;13.60;;;;;;;13.53;90.63;99626.63;1747206;80;21114;-56
2022/03/31 02:14:41;;;;;;;22.30;13.80;;;;;;;13.88;84.58;99633.38;1747075;81;21042;-56
2022/03/31 02:17:10;;;;;;;;;;;;;;;12.98;95.25;99637.46;1748314;80;21043;-56
2022/03/31 02:19:37;;;;;;;22.82;14.47;;;;;;;13.00;96.33;99636.75;1746889;80;21231;-56
2022/03/31 02:22:05;;;;;;;22.52;13.93;;;;;;;13.09;92.71;99632.33;1746750;81;21340;-55
2022/03/31 02:24:32;;;;;;;22.45;14.68;;;;;;;13.29;93.22;99635.30;1747547;80;20994;-56
2022/03/31 02:26:59;;;;;;;23.85;14.95;;;;;;;12.94;96.34;99629.75;1746848;80;20998;-56
2022/03/31 02:29:27;;;;;;;24.67;15.05;;;;;;;13.64;92.99;99640.81;1746898;80;20978;-60
2022/03/31 02:31:53;;;;;;;22.75;13.45;;;;;;;12.67;99.03;99636.48;1752247;81;21295;-56
2022/03/31 02:34:22;;;;;;;22.77;13.43;;;;;;;12.56;100.00;99631.93;1746909;80;20995;-56
2022/03/31 02:36:50;;;;;;;27.22;15.43;;;;;;;12.39;100.00;99638.17;1747179;80;21454;-55
2022/03/31 02:39:17;;;;;;;26.52;15.78;;;;;;;12.44;100.00;99633.11;1746774;81;20991;-60
2022/03/31 02:41:43;;;;;;;23.38;14.53;;;;;;;12.98;100.00;99634.84;1734912;81;21508;-56
2022/03/31 02:44:10;;;;;;;27.87;14.80;;;;;;;12.60;100.00;99639.13;1746595;81;21429;-55
2022/03/31 02:46:38;;;;;;;21.05;14.50;;;;;;;12.91;100.00;99642.23;1746981;80;20975;-56
2022/03/31 02:49:04;;;;;;;21.27;14.87;;;;;;;13.36;91.93;99643.39;1747044;81;21026;-58
2022/03/31 02:51:31;;;;;;;23.87;15.48;;;;;;;13.33;90.66;99637.30;1747412;80;21219;-59
2022/03/31 02:56:42;;;;;;;21.05;14.05;;;;;;;12.57;98.69;99645.28;1665854;84;21163;-55
2022/03/31 02:59:09;;;;;;;25.37;15.95;;;;;;;12.24;100.00;99652.83;1709494;81;20927;-55
2022/03/31 03:01:35;;;;;;;21.27;12.58;;;;;;;12.20;100.00;99649.03;1789034;77;21053;-58
2022/03/31 03:04:02;;;;;;;27.17;15.30;;;;;;;12.70;100.00;99653.57;1817849;77;21060;-58
2022/03/31 03:06:29;;;;;;;34.80;14.75;;;;;;;12.99;100.00;99644.28;1817542;77;21068;-59
2022/03/31 03:08:56;;;;;;;23.18;14.78;;;;;;;13.19;96.39;99658.03;1817010;77;21191;-57
2022/03/31 03:11:23;;;;;;;22.17;15.25;;;;;;;13.24;92.82;99652.97;1817400;77;20930;-62
2022/03/31 03:13:50;;;;;;;24.05;15.38;;;;;;;13.25;94.13;99645.91;1817008;78;21470;-58
2022/03/31 03:16:17;;;;;;;23.47;13.95;;;;;;;13.28;93.57;99652.83;1817521;78;21037;-58
2022/03/31 03:18:45;;;;;;;25.40;15.32;;;;;;;13.44;91.83;99655.40;1817187;78;20981;-57
2022/03/31 03:21:13;;;;;;;24.45;16.23;;;;;;;13.26;94.22;99652.74;1814905;77;21238;-57
2022/03/31 03:23:41;;;;;;;21.57;14.10;;;;;;;13.15;95.31;99656.86;1805802;78;20998;-63
2022/03/31 03:26:09;;;;;;;25.68;13.55;;;;;;;13.26;93.51;99650.95;1798955;77;21057;-57
2022/03/31 03:28:37;;;;;;;27.27;16.15;;;;;;;13.33;92.86;99659.55;1816975;78;20985;-57
2022/03/31 03:31:05;;;;;;;25.52;16.07;;;;;;;13.33;93.87;99654.31;1817614;77;20961;-57
2022/03/31 03:33:32;;;;;;;22.07;15.80;;;;;;;13.42;93.59;99657.95;1817943;77;21220;-57
2022/03/31 03:35:59;;;;;;;21.45;13.68;;;;;;;13.44;92.83;99655.91;1818013;77;21088;-58
2022/03/31 03:38:26;;;;;;;25.50;15.18;;;;;;;13.42;93.30;99667.13;1817143;78;22139;-57
2022/03/31 03:40:54;;;;;;;30.35;16.73;;;;;;;13.39;93.57;99661.80;1804615;78;21144;-58
2022/03/31 03:43:21;;;;;;;28.90;15.48;;;;;;;13.46;93.49;99664.36;1817400;78;20974;-57
2022/03/31 03:45:47;;;;;;;19.77;13.88;;;;;;;13.39;93.08;99659.98;1818567;77;21142;-57
2022/03/31 03:48:14;;;;;;;29.87;15.30;;;;;;;13.35;92.54;99655.39;1817060;77;20992;-58
2022/03/31 03:50:41;;;;;;;19.42;14.60;;;;;;;13.38;91.83;99661.00;1810889;77;21036;-58
2022/03/31 03:53:07;;;;;;;21.62;13.70;;;;;;;13.67;89.14;99659.20;1817210;78;20942;-56
2022/03/31 03:55:36;;;;;;;19.82;13.38;;;;;;;13.46;89.93;99668.29;1817168;77;20922;-56
2022/03/31 03:58:05;;;;;;;22.73;14.40;;;;;;;13.30;91.82;99659.97;1804002;77;21126;-57
2022/03/31 04:00:31;;;;;;;23.98;14.75;;;;;;;13.33;92.22;99671.33;1814619;77;20993;-57
2022/03/31 04:02:58;;;;;;;27.00;16.75;;;;;;;13.29;92.27;99674.05;1817177;78;21072;-55
2022/03/31 04:05:25;;;;;;;21.02;12.95;;;;;;;13.44;90.77;99683.41;1817921;77;21032;-57
2022/03/31 04:07:53;;;;;;;24.35;13.85;;;;;;;13.59;89.25;99681.23;1805396;77;20930;-59
2022/03/31 04:10:20;;;;;;;19.80;13.15;;;;;;;13.48;90.83;99687.98;1816512;78;21070;-57
2022/03/31 04:12:47;;;;;;;21.57;13.98;;;;;;;13.67;88.91;99690.63;1817868;77;20951;-57
2022/03/31 04:15:14;;;;;;;22.58;13.25;;;;;;;13.82;86.41;99691.88;1817372;77;20922;-57
2022/03/31 04:17:43;;;;;;;20.30;13.03;;;;;;;13.91;85.18;99691.09;1818542;77;20989;-58
2022/03/31 04:20:11;;;;;;;19.55;13.40;;;;;;;14.00;84.39;99688.47;1818236;77;20927;-59
2022/03/31 04:22:38;;;;;;;22.70;14.58;;;;;;;14.02;84.33;99686.95;1817570;77;21115;-57
2022/03/31 04:25:07;;;;;;;22.15;14.25;;;;;;;14.16;83.18;99688.37;1817206;78;21033;-58
2022/03/31 04:27:35;;;;;;;24.27;12.70;;;;;;;14.13;83.58;99690.15;1818033;77;21449;-57
2022/03/31 04:30:04;;;;;;;25.55;13.43;;;;;;;14.30;81.92;99683.27;1818315;77;20990;-58
2022/03/31 04:32:32;;;;;;;24.55;13.80;;;;;;;14.20;83.14;99685.60;1816953;78;20950;-58
2022/03/31 04:34:59;;;;;;;27.73;15.10;;;;;;;14.31;82.04;99679.61;1817417;78;21221;-58
2022/03/31 04:37:27;;;;;;;21.20;13.90;;;;;;;14.50;80.64;99680.92;1817224;77;21022;-58
2022/03/31 04:39:54;;;;;;;19.20;12.30;;;;;;;14.46;80.32;99679.73;1804727;78;20981;-59
2022/03/31 04:42:21;;;;;;;20.55;12.80;;;;;;;14.60;79.28;99682.51;1816754;78;21519;-57
2022/03/31 04:44:48;;;;;;;19.00;13.25;;;;;;;14.64;79.50;99669.23;1817240;78;21118;-57
2022/03/31 04:47:15;;;;;;;20.68;13.30;;;;;;;14.89;76.98;99675.64;1818164;77;21226;-58
2022/03/31 04:49:43;;;;;;;24.00;12.40;;;;;;;15.06;75.21;99670.52;1818389;77;20981;-57
2022/03/31 04:52:11;;;;;;;22.90;12.75;;;;;;;15.40;72.92;99667.63;1817721;77;21401;-62
2022/03/31 04:54:43;;;;;;;22.37;13.53;;;;;;;14.59;78.51;99684.33;1818423;77;20978;-56
2022/03/31 04:57:06;;;;;;;26.87;14.53;;;;;;;14.20;86.00;99686.11;1816594;77;21657;-55
2022/03/31 04:59:33;;;;;;;20.80;13.23;;;;;;;14.41;85.70;99671.75;1817278;78;22121;-55
2022/03/31 05:02:01;;;;;;;21.63;11.90;;;;;;;15.48;73.83;99671.22;1809903;78;21250;-57
2022/03/31 05:04:28;;;;;;;21.23;12.13;;;;;;;15.66;70.58;99668.22;1802150;78;21279;-55
2022/03/31 05:06:55;;;;;;;19.73;12.23;;;;;;;15.52;71.12;99667.62;1789414;79;21528;-56
2022/03/31 05:09:22;;;;;;;21.10;12.33;;;;;;;15.37;72.10;99672.53;1802178;79;21319;-55
2022/03/31 05:11:50;;;;;;;20.13;12.30;;;;;;;15.46;71.04;99669.34;1802686;78;21396;-57
2022/03/31 05:14:16;;;;;;;19.60;13.07;;;;;;;15.46;71.84;99672.49;1803059;78;21225;-59
2022/03/31 05:16:45;;;;;;;21.10;12.83;;;;;;;15.74;68.86;99671.28;1801888;79;21284;-55
2022/03/31 05:19:12;;;;;;;22.33;12.70;;;;;;;15.73;68.80;99672.31;1803486;78;21522;-54
2022/03/31 05:21:40;;;;;;;23.13;13.00;;;;;;;15.85;67.44;99675.44;1802651;78;21244;-56
2022/03/31 05:24:08;;;;;;;22.33;13.40;;;;;;;15.92;66.21;99673.48;1801742;79;21157;-60
2022/03/31 05:26:35;;;;;;;21.70;12.27;;;;;;;16.06;65.33;99672.17;1802673;78;21335;-56
2022/03/31 05:29:02;;;;;;;18.70;11.63;;;;;;;16.32;62.69;99665.58;1802261;79;21148;-57
2022/03/31 05:31:29;;;;;;;21.37;13.00;;;;;;;16.04;64.39;99677.67;1803626;78;21266;-57
2022/03/31 05:33:56;;;;;;;23.03;12.93;;;;;;;15.99;64.83;99687.30;1802570;79;21025;-55
2022/03/31 05:36:22;;;;;;;22.20;14.27;;;;;;;16.05;64.38;99685.05;1803615;78;22061;-56
2022/03/31 05:38:49;;;;;;;22.37;13.83;;;;;;;16.20;64.77;99681.40;1802721;78;21331;-57
2022/03/31 05:41:17;;;;;;;25.13;14.57;;;;;;;16.24;65.26;99687.78;1802362;78;21294;-56
2022/03/31 05:43:43;;;;;;;20.70;14.43;;;;;;;16.35;64.17;99686.67;1801767;78;21311;-57
2022/03/31 05:46:10;;;;;;;21.77;13.43;;;;;;;16.45;63.56;99681.09;1802435;79;22375;-63
2022/03/31 05:48:37;;;;;;;26.17;15.00;;;;;;;16.49;62.79;99684.05;1803159;78;21314;-57
2022/03/31 05:51:03;;;;;;;26.23;15.33;;;;;;;16.52;61.99;99686.22;1803249;78;21179;-56
2022/03/31 05:53:30;;;;;;;23.90;14.00;;;;;;;16.56;61.75;99676.02;1801879;79;21721;-56
2022/03/31 05:55:58;;;;;;;23.00;13.83;;;;;;;16.58;61.74;99677.36;1796702;78;21231;-57
2022/03/31 05:58:24;;;;;;;26.37;12.60;;;;;;;16.29;62.68;99677.38;1795936;78;21198;-57
2022/03/31 06:00:53;;;;;;;18.73;12.23;;;;;;;16.60;62.16;99677.14;1802651;78;21294;-58
2022/03/31 06:03:22;;;;;;;20.10;11.73;;;;;;;15.55;70.73;99679.78;1802908;78;21215;-58
2022/03/31 06:05:49;;;;;;;20.27;11.63;;;;;;;15.49;73.61;99679.41;1801718;78;21764;-56
2022/03/31 06:08:17;;;;;;;19.87;11.50;;;;;;;16.33;66.66;99679.52;1801423;78;21045;-58
2022/03/31 06:10:45;;;;;;;21.90;11.90;;;;;;;16.42;65.31;99674.18;1802481;78;21620;-56
2022/03/31 06:13:12;;;;;;;19.90;12.60;;;;;;;16.51;64.25;99680.65;1801978;78;21149;-59
2022/03/31 06:15:40;;;;;;;18.03;11.83;;;;;;;16.44;65.00;99673.41;1798816;78;21235;-58
2022/03/31 06:18:07;;;;;;;22.40;12.23;;;;;;;16.56;64.81;99682.08;1797233;78;21080;-57
2022/03/31 06:20:35;;;;;;;18.20;11.80;;;;;;;16.62;63.90;99682.42;1801887;78;21099;-57
2022/03/31 06:23:02;;;;;;;21.17;12.47;;;;;;;16.80;63.09;99680.66;1802306;79;21587;-55
2022/03/31 06:25:29;;;;;;;18.67;11.20;;;;;;;16.90;62.03;99681.64;1803625;78;21233;-57
2022/03/31 06:27:56;;;;;;;22.47;12.10;;;;;;;16.82;62.35;99681.20;1801836;79;21674;-59
2022/03/31 06:30:23;;;;;;;21.03;11.87;;;;;;;16.99;61.81;99687.30;1802713;78;21280;-58
2022/03/31 06:32:50;;;;;;;19.30;10.90;;;;;;;16.38;64.39;99697.52;1804313;78;21290;-57
2022/03/31 06:35:17;;;;;;;20.13;12.70;;;;;;;15.85;69.54;99701.72;1800285;78;21286;-57
2022/03/31 06:37:46;;;;;;;21.97;12.27;;;;;;;16.19;70.22;99713.20;1795324;78;21210;-57
2022/03/31 06:40:14;;;;;;;19.30;10.80;;;;;;;17.23;62.19;99709.79;1798625;78;21222;-63
2022/03/31 06:42:41;;;;;;;15.10;9.77;;;;;;;16.66;62.76;99716.97;1802348;78;21237;-57
2022/03/31 06:45:12;;;;;;;18.97;10.17;;;;;;;17.12;61.89;99714.64;1802834;78;21164;-58
2022/03/31 06:47:39;;;;;;;18.40;10.27;;;;;;;16.82;63.65;99704.41;1801590;78;21084;-57
2022/03/31 06:50:07;;;;;;;26.73;11.30;;;;;;;17.24;61.81;99721.94;1802381;78;21761;-64
2022/03/31 06:52:34;;;;;;;20.27;11.73;;;;;;;17.13;62.44;99718.87;1795958;78;21173;-56
2022/03/31 06:55:01;;;;;;;23.17;11.60;;;;;;;17.89;59.16;99715.78;1803181;78;21041;-56
2022/03/31 06:57:29;;;;;;;19.27;9.83;;;;;;;17.34;60.42;99725.77;1800960;79;21304;-56
2022/03/31 06:59:55;;;;;;;19.30;10.50;;;;;;;17.52;59.71;99713.66;1802023;79;21337;-58
2022/03/31 07:02:23;;;;;;;14.73;9.40;;;;;;;18.12;56.61;99718.17;1801767;78;21364;-55
2022/03/31 07:04:51;;;;;;;17.93;9.90;;;;;;;18.45;54.24;99713.28;1803581;78;21409;-57
2022/03/31 07:07:17;;;;;;;17.63;9.87;;;;;;;18.78;51.76;99710.18;1803036;78;21881;-57
2022/03/31 07:09:45;;;;;;;17.63;9.33;;;;;;;18.78;51.76;99710.18;1803557;78;21488;-56
2022/03/31 07:12:12;;;;;;;17.40;9.00;;;;;;;18.95;51.23;99718.80;1803288;78;21367;-59
2022/03/31 07:14:40;;;;;;;17.10;9.00;;;;;;;19.50;50.46;99723.42;1802642;78;21561;-58
2022/03/31 07:17:07;;;;;;;15.03;9.27;;;;;;;19.69;49.80;99722.52;1801877;79;22334;-55
2022/03/31 07:19:34;;;;;;;13.53;9.50;;;;;;;19.69;49.80;99722.52;1790534;78;21489;-55
2022/03/31 07:22:00;;;;;;;18.70;9.37;;;;;;;19.95;48.48;99726.09;1790465;78;21531;-56
2022/03/31 07:24:27;;;;;;;19.10;9.13;;;;;;;20.22;46.46;99721.17;1799891;78;21628;-58
2022/03/31 07:26:54;;;;;;;15.17;8.27;;;;;;;20.22;46.46;99721.17;1798482;78;22294;-58
2022/03/31 07:29:21;;;;;;;17.67;8.70;;;;;;;20.44;45.09;99716.48;1802032;78;20946;-55
2022/03/31 07:31:48;;;;;;;15.80;7.67;;;;;;;20.48;44.99;99705.63;1802591;78;21043;-55
2022/03/31 07:34:15;;;;;;;14.57;7.57;;;;;;;20.68;44.53;99700.92;1801742;78;21010;-61
2022/03/31 07:36:42;;;;;;;12.60;7.40;;;;;;;20.73;43.99;99700.95;1801692;78;20954;-55
2022/03/31 07:39:08;;;;;;;18.87;6.83;;;;;;;21.12;42.31;99693.26;1800314;78;21075;-58
2022/03/31 07:41:35;;;;;;;14.70;7.37;;;;;;;21.35;41.54;99695.13;1800220;77;21048;-57
2022/03/31 07:44:04;;;;;;;16.47;7.23;;;;;;;21.60;40.35;99687.12;1795621;78;21473;-57
2022/03/31 07:46:32;;;;;;;10.97;6.63;;;;;;;21.62;40.01;99690.28;1801151;78;21586;-61
2022/03/31 07:48:59;;;;;;;13.87;7.20;;;;;;;21.98;39.15;99691.50;1802960;78;21504;-57
2022/03/31 07:51:26;;;;;;;13.47;6.67;;;;;;;22.35;38.23;99687.64;1801863;78;21131;-56
2022/03/31 07:53:53;;;;;;;11.40;5.93;;;;;;;22.74;37.33;99692.95;1804831;78;20979;-55
2022/03/31 07:56:20;;;;;;;16.77;6.47;;;;;;;23.14;36.39;99694.24;1802956;78;20875;-57
2022/03/31 07:58:48;;;;;;;15.40;6.17;;;;;;;23.21;35.36;99684.86;1801215;78;21026;-57
2022/03/31 08:01:14;;;;;;;18.10;6.70;;;;;;;23.33;35.12;99689.80;1802259;79;20911;-55
2022/03/31 08:03:41;;;;;;;14.50;6.60;;;;;;;23.49;34.90;99695.78;1802527;78;21120;-57
2022/03/31 08:06:08;;;;;;;13.73;5.93;;;;;;;23.52;34.14;99686.70;1802150;78;22336;-56
2022/03/31 08:08:38;;;;;;;16.07;5.47;;;;;;;23.62;33.77;99688.98;1802114;78;20947;-57
2022/03/31 08:11:04;;;;;;;15.27;6.23;;;;;;;23.78;33.44;99698.41;1802059;78;21070;-56
2022/03/31 08:13:31;;;;;;;16.70;6.27;;;;;;;23.76;32.97;99689.92;1801870;79;21085;-56
2022/03/31 08:15:59;;;;;;;13.17;5.20;;;;;;;23.61;32.75;99688.73;1803058;78;21754;-55
2022/03/31 08:18:34;;;;;;;12.77;5.87;;;;;;;23.54;32.46;99689.86;1802268;78;21453;-56
2022/03/31 08:20:57;;;;;;;18.57;6.50;;;;;;;23.61;32.80;99687.41;1788482;79;20995;-57
2022/03/31 08:23:26;;;;;;;14.30;5.93;;;;;;;23.62;32.78;99678.34;1803207;78;20951;-57
2022/03/31 08:25:54;;;;;;;11.50;5.20;;;;;;;23.78;32.06;99671.79;1797582;78;20998;-57
2022/03/31 08:28:21;;;;;;;20.63;7.63;;;;;;;23.79;31.95;99671.52;1805767;78;21123;-57
2022/03/31 08:30:49;;;;;;;18.00;8.43;;;;;;;23.77;31.84;99666.22;1809011;78;20938;-57
2022/03/31 08:33:16;;;;;;;13.57;6.30;;;;;;;23.81;31.82;99659.80;1802964;78;21641;-57
2022/03/31 08:35:43;;;;;;;14.20;6.43;;;;;;;23.83;31.46;99665.09;1802578;78;21011;-58
2022/03/31 08:38:12;;;;;;;15.00;6.87;;;;;;;23.77;31.63;99658.23;1802342;78;21065;-56
2022/03/31 08:40:38;;;;;;;11.97;6.10;;;;;;;23.76;31.82;99663.31;1800686;78;21358;-62
2022/03/31 08:43:05;;;;;;;11.90;6.07;;;;;;;23.98;31.12;99648.92;1805460;78;21029;-58
2022/03/31 08:45:35;;;;;;;12.33;6.10;;;;;;;24.03;31.07;99638.73;1802455;78;21014;-56
2022/03/31 08:48:04;;;;;;;11.38;6.33;;;;;;;23.99;31.05;99635.07;1801235;78;21052;-57
2022/03/31 08:50:33;;;;;;;15.60;7.63;;;;;;;23.94;31.00;99634.61;1803595;78;21010;-58
2022/03/31 08:53:00;;;;;;;13.13;6.03;;;;;;;24.08;31.11;99628.02;1775613;79;21208;-58
2022/03/31 08:55:28;;;;;;;18.37;6.83;;;;;;;24.27;30.77;99619.47;1797768;78;21323;-56
2022/03/31 08:57:54;;;;;;;15.03;6.40;;;;;;;24.49;30.56;99618.13;1798622;78;20987;-56
2022/03/31 09:00:23;;;;;;;13.27;6.83;;;;;;;24.71;30.40;99617.50;1796383;78;21037;-55
2022/03/31 09:02:59;;;;;;;15.70;5.97;;;;;;;24.83;30.08;99609.83;1805706;77;21052;-63
2022/03/31 09:05:30;;;;;;;15.93;6.17;;;;;;;25.17;29.65;99600.17;1818895;77;21186;-57
2022/03/31 09:08:00;;;;;;;11.90;5.57;;;;;;;25.60;29.01;99602.52;1816717;77;20980;-56
2022/03/31 09:10:31;;;;;;;13.37;6.00;;;;;;;25.91;28.42;99587.20;1817789;77;20914;-56
2022/03/31 09:13:03;;;;;;;17.55;5.83;;;;;;;26.12;28.29;99587.00;1811335;77;20859;-60
2022/03/31 09:15:32;;;;;;;16.47;6.10;;;;;;;26.27;28.37;99583.73;1814472;77;21013;-57
2022/03/31 09:18:00;;;;;;;15.97;7.53;;;;;;;26.77;27.47;99588.39;1817421;77;21789;-57
2022/03/31 09:20:39;;;;;;;19.23;7.13;;;;;;;27.06;27.17;99581.21;1817253;77;20982;-57
2022/03/31 09:23:06;;;;;;;15.07;6.83;;;;;;;26.84;27.18;99583.39;1818302;77;20990;-57
2022/03/31 09:25:33;;;;;;;10.73;5.87;;;;;;;26.67;27.43;99576.09;1817342;77;21057;-56
2022/03/31 09:28:18;;;;;;;12.63;5.57;;;;;;;26.77;27.10;99576.36;1817394;77;21041;-57
2022/03/31 09:30:52;;;;;;;21.40;5.73;;;;;;;26.66;27.32;99563.80;1817736;76;21120;-56
2022/03/31 09:33:29;;;;;;;13.43;5.50;;;;;;;26.37;27.65;99545.55;1818051;77;21541;-59
2022/03/31 09:36:07;;;;;;;15.90;5.97;;;;;;;26.25;27.89;99555.19;1812745;77;21037;-58
2022/03/31 09:38:40;;;;;;;15.33;6.13;;;;;;;26.33;28.02;99553.92;1816772;77;20993;-57
2022/03/31 09:41:20;;;;;;;17.25;6.28;;;;;;;26.79;27.30;99542.64;1813532;77;21462;-55
2022/03/31 09:43:48;;;;;;;13.17;6.03;;;;;;;27.05;27.20;99538.70;1810008;77;21238;-57
2022/03/31 09:46:35;;;;;;;13.67;5.73;;;;;;;27.40;26.67;99536.40;1817598;77;20973;-57
2022/03/31 09:49:15;;;;;;;16.30;6.13;;;;;;;27.62;26.28;99528.80;1817424;78;21550;-58
2022/03/31 09:51:46;;;;;;;16.80;5.87;;;;;;;27.49;26.55;99543.09;1814230;77;21437;-57
2022/03/31 09:54:12;;;;;;;17.57;5.57;;;;;;;27.44;26.47;99528.53;1808812;78;20974;-59
2022/03/31 09:56:40;;;;;;;17.87;6.00;;;;;;;27.67;26.33;99537.22;1818033;77;21187;-57
2022/03/31 09:59:12;;;;;;;14.23;5.40;;;;;;;28.06;25.85;99516.74;1817212;77;21622;-57
2022/03/31 10:01:40;;;;;;;12.27;5.40;;;;;;;28.18;25.91;99515.53;1799116;77;20985;-58
2022/03/31 10:04:09;;;;;;;13.53;5.60;;;;;;;28.24;25.90;99516.95;1810602;77;21020;-58
2022/03/31 10:06:40;;;;;;;18.40;5.77;;;;;;;28.33;25.56;99506.98;1821331;77;21501;-56
2022/03/31 10:09:09;;;;;;;14.03;5.65;;;;;;;28.17;25.82;99501.91;1817212;78;21222;-60
2022/03/31 10:11:42;;;;;;;20.40;6.63;;;;;;;28.14;25.81;99499.86;1817745;77;20911;-58
2022/03/31 10:14:17;;;;;;;15.27;5.90;;;;;;;28.16;25.81;99491.52;1818404;77;21217;-57
2022/03/31 10:16:50;;;;;;;13.30;5.77;;;;;;;28.23;25.88;99491.27;1786616;77;21013;-57
2022/03/31 10:19:38;;;;;;;19.63;5.93;;;;;;;28.17;25.89;99486.39;1817093;78;21381;-65
2022/03/31 10:22:10;;;;;;;14.97;5.60;;;;;;;27.84;26.22;99477.00;1817470;77;22569;-58
2022/03/31 10:24:46;;;;;;;11.77;6.17;;;;;;;27.54;26.56;99472.55;1818373;77;20961;-58
2022/03/31 10:27:26;;;;;;;14.10;6.00;;;;;;;27.34;27.03;99469.95;1764214;78;21056;-58
2022/03/31 10:29:55;;;;;;;15.40;5.50;;;;;;;26.96;27.53;99479.06;1801819;77;21060;-57
2022/03/31 10:32:23;;;;;;;16.07;5.63;;;;;;;26.49;27.98;99476.86;1817942;77;20981;-64
2022/03/31 10:34:53;;;;;;;13.37;5.83;;;;;;;26.09;28.33;99473.30;1818984;77;21223;-57
2022/03/31 10:37:37;;;;;;;10.57;4.57;;;;;;;26.08;28.38;99470.39;1818318;77;20962;-58
2022/03/31 10:40:08;;;;;;;16.80;6.30;;;;;;;25.91;28.86;99485.22;1786629;78;21432;-64
2022/03/31 10:42:35;;;;;;;22.73;5.95;;;;;;;25.91;28.97;99473.20;1817955;77;21056;-58
2022/03/31 10:45:05;;;;;;;21.37;6.77;;;;;;;25.93;28.85;99476.34;1817349;77;20986;-57
2022/03/31 10:47:34;;;;;;;15.43;6.60;;;;;;;25.86;29.05;99471.19;1818169;77;21821;-57
2022/03/31 10:50:01;;;;;;;16.90;5.77;;;;;;;26.14;28.83;99461.95;1817974;77;20982;-61
2022/03/31 10:52:28;;;;;;;16.97;5.23;;;;;;;26.48;28.71;99449.08;1804343;78;21585;-56
2022/03/31 10:55:09;;;;;;;16.77;5.80;;;;;;;26.83;28.37;99460.16;1817465;77;21471;-56
2022/03/31 10:57:43;;;;;;;15.60;5.67;;;;;;;27.21;28.07;99444.14;1817925;77;20846;-64
2022/03/31 11:00:14;;;;;;;26.73;6.23;;;;;;;27.43;27.84;99437.83;1817610;78;21200;-56
2022/03/31 11:02:44;;;;;;;22.32;5.80;;;;;;;28.14;26.40;99439.57;1818208;77;21260;-59
2022/03/31 11:05:11;;;;;;;21.67;6.50;;;;;;;28.42;25.24;99438.66;1817670;77;20922;-57
2022/03/31 11:07:38;;;;;;;17.10;5.87;;;;;;;28.53;25.08;99445.79;1817844;77;21471;-55
2022/03/31 11:10:11;;;;;;;12.57;5.63;;;;;;;28.26;25.17;99442.92;1817504;77;21142;-54
2022/03/31 11:12:40;;;;;;;18.70;5.83;;;;;;;28.25;25.08;99432.76;1817997;77;21222;-58
2022/03/31 11:15:13;;;;;;;25.07;6.80;;;;;;;28.11;25.24;99426.84;1817564;78;21364;-57
2022/03/31 11:17:41;;;;;;;16.97;6.10;;;;;;;28.12;25.55;99440.45;1816674;77;21095;-63
2022/03/31 11:20:21;;;;;;;16.27;5.77;;;;;;;28.24;25.60;99437.89;1817367;78;21043;-55
2022/03/31 11:22:54;;;;;;;24.87;5.70;;;;;;;28.41;25.70;99432.25;1818574;77;21054;-57
2022/03/31 11:25:22;;;;;;;24.97;6.40;;;;;;;28.64;24.83;99416.16;1817566;78;21218;-57
2022/03/31 11:27:52;;;;;;;15.50;5.07;;;;;;;28.62;24.49;99438.48;1817427;77;20948;-56
2022/03/31 11:30:22;;;;;;;21.70;6.70;;;;;;;28.42;24.52;99428.48;1818341;77;21001;-58